Time;durP1;ratioP1;P1;durP2;ratioP2;P2;SDS_P1;SDS_P2;PMS_P1;PMS_P2;Temp;Humidity;BMP_temperature;BMP_pressure;BME280_temperature;BME280_humidity;BME280_pressure;Samples;Min_cycle;Max_cycle;Signal;HPM_P1;HPM_P2
2021/07/22 00:00:29;;;;;;;11.27;3.30;;;;;;;17.84;58.38;101882.13;4807995;29;124448;-75
2021/07/22 00:02:55;;;;;;;10.07;3.58;;;;;;;17.82;58.89;101881.84;4811179;29;122202;-75
2021/07/22 00:05:23;;;;;;;12.50;3.50;;;;;;;17.78;58.54;101882.00;4809826;29;119389;-75
2021/07/22 00:07:50;;;;;;;9.63;3.30;;;;;;;17.83;58.40;101883.38;4812531;29;119825;-75
2021/07/22 00:10:17;;;;;;;13.15;3.72;;;;;;;17.84;58.81;101880.13;4811229;29;120211;-76
2021/07/22 00:12:44;;;;;;;13.60;3.92;;;;;;;17.85;58.87;101878.88;4810878;29;120107;-76
2021/07/22 00:15:10;;;;;;;10.00;3.40;;;;;;;17.89;58.94;101875.91;4809625;29;119999;-77
2021/07/22 00:17:36;;;;;;;8.68;3.03;;;;;;;17.91;58.67;101885.31;4814781;29;120271;-76
2021/07/22 00:20:05;;;;;;;9.75;2.90;;;;;;;17.94;58.56;101881.59;4826203;29;120079;-75
2021/07/22 00:22:31;;;;;;;7.90;2.90;;;;;;;17.97;58.06;101874.31;4812005;29;119960;-76
2021/07/22 00:24:57;;;;;;;13.32;3.55;;;;;;;17.93;58.33;101874.50;4812096;29;120254;-76
2021/07/22 00:27:23;;;;;;;10.68;3.15;;;;;;;17.97;58.82;101877.09;4811734;29;119648;-75
2021/07/22 00:29:56;;;;;;;12.57;3.47;;;;;;;18.00;58.78;101878.94;4810393;29;120128;-76
2021/07/22 00:32:22;;;;;;;13.18;3.35;;;;;;;18.03;58.69;101872.44;4813843;29;120078;-76
2021/07/22 00:34:48;;;;;;;12.93;3.33;;;;;;;18.05;58.59;101867.19;4811275;29;121040;-76
2021/07/22 00:37:14;;;;;;;8.15;3.20;;;;;;;18.03;58.53;101866.88;4795303;29;120747;-76
2021/07/22 00:39:39;;;;;;;8.90;3.42;;;;;;;18.07;58.08;101867.47;4812427;29;119608;-75
2021/07/22 00:42:10;;;;;;;7.75;2.92;;;;;;;18.04;58.40;101865.66;4807393;29;121462;-75
2021/07/22 00:44:35;;;;;;;9.07;3.20;;;;;;;18.09;58.59;101865.00;4781987;29;120940;-76
2021/07/22 00:47:01;;;;;;;8.68;3.10;;;;;;;18.07;58.47;101865.47;4806403;29;119800;-76
2021/07/22 00:49:28;;;;;;;7.05;2.92;;;;;;;18.08;58.98;101871.78;4808347;29;120855;-75
2021/07/22 00:51:54;;;;;;;14.40;4.10;;;;;;;18.12;59.36;101861.25;4807664;29;121239;-77
2021/07/22 00:54:22;;;;;;;10.98;3.40;;;;;;;18.17;59.46;101873.72;4795000;29;120203;-75
2021/07/22 00:56:50;;;;;;;9.20;2.90;;;;;;;18.19;59.39;101872.00;4781309;29;121466;-76
2021/07/22 00:59:16;;;;;;;14.43;3.50;;;;;;;18.21;59.35;101880.63;4809074;29;119672;-76
2021/07/22 01:01:42;;;;;;;8.35;2.80;;;;;;;18.23;59.10;101872.59;4813565;29;119774;-76
2021/07/22 01:04:12;;;;;;;11.23;3.05;;;;;;;18.17;58.56;101863.38;4810365;29;119607;-75
2021/07/22 01:06:38;;;;;;;6.30;2.92;;;;;;;18.24;58.89;101874.13;4809100;29;119802;-76
2021/07/22 01:09:12;;;;;;;9.40;3.30;;;;;;;18.24;58.99;101871.38;4795581;29;119495;-76
2021/07/22 01:11:44;;;;;;;10.73;3.65;;;;;;;18.27;59.24;101867.63;4796921;29;120062;-75
2021/07/22 01:14:10;;;;;;;9.30;3.35;;;;;;;18.27;59.23;101866.88;4792234;29;121726;-75
2021/07/22 01:16:36;;;;;;;12.45;3.42;;;;;;;18.29;59.63;101864.38;4811031;29;120303;-76
2021/07/22 01:19:02;;;;;;;9.27;2.92;;;;;;;18.31;58.98;101868.22;4817536;29;120093;-77
2021/07/22 01:21:28;;;;;;;7.10;2.55;;;;;;;18.34;59.05;101867.25;4809995;29;119779;-75
2021/07/22 01:23:57;;;;;;;12.40;2.92;;;;;;;18.37;59.37;101871.84;4810590;29;125067;-75
2021/07/22 01:26:32;;;;;;;8.65;3.15;;;;;;;18.39;59.50;101874.91;4826153;28;119543;-76
2021/07/22 01:29:07;;;;;;;8.88;3.17;;;;;;;18.43;59.38;101863.63;4823789;29;119933;-75
2021/07/22 01:31:33;;;;;;;10.23;2.95;;;;;;;18.46;59.09;101867.47;4807044;29;121075;-76
2021/07/22 01:34:01;;;;;;;8.43;2.70;;;;;;;18.46;59.29;101870.25;4810314;29;119784;-76
2021/07/22 01:36:27;;;;;;;9.93;2.92;;;;;;;18.49;59.06;101861.72;4826269;28;120492;-76
2021/07/22 01:38:59;;;;;;;9.25;3.33;;;;;;;18.52;59.24;101863.56;4796872;29;119876;-75
2021/07/22 01:41:25;;;;;;;10.60;3.13;;;;;;;18.55;59.03;101867.38;4795293;29;119883;-76
2021/07/22 01:43:51;;;;;;;10.50;3.13;;;;;;;18.58;58.77;101866.44;4821594;28;120117;-75
2021/07/22 01:46:19;;;;;;;8.75;2.75;;;;;;;18.59;58.67;101862.41;4810706;29;119654;-75
2021/07/22 01:48:47;;;;;;;7.05;2.60;;;;;;;18.60;58.55;101850.81;4808543;29;120039;-76
2021/07/22 01:51:12;;;;;;;9.15;2.80;;;;;;;18.65;58.92;101860.50;4811525;29;120097;-76
2021/07/22 01:53:44;;;;;;;12.02;3.28;;;;;;;18.66;58.66;101862.81;4795305;29;120782;-76
2021/07/22 01:56:11;;;;;;;9.20;2.80;;;;;;;18.71;58.55;101866.97;4810574;29;119602;-75
2021/07/22 01:58:39;;;;;;;8.77;2.70;;;;;;;18.72;58.36;101862.94;4788546;29;119881;-75
2021/07/22 02:01:07;;;;;;;10.48;3.05;;;;;;;18.73;58.79;101858.91;4824435;29;119632;-76
2021/07/22 02:03:34;;;;;;;9.95;2.88;;;;;;;18.73;58.48;101858.91;4791396;29;123326;-77
2021/07/22 02:06:08;;;;;;;9.05;2.88;;;;;;;18.81;58.51;101870.41;4830990;28;119554;-76
2021/07/22 02:08:38;;;;;;;6.38;2.75;;;;;;;18.83;58.76;101870.69;4777243;29;122384;-76
2021/07/22 02:11:05;;;;;;;13.50;2.90;;;;;;;18.80;58.84;101855.75;4806349;29;126509;-77
2021/07/22 02:13:33;;;;;;;11.00;2.80;;;;;;;18.88;58.27;101861.69;4782846;29;122774;-75
2021/07/22 02:15:59;;;;;;;9.68;2.90;;;;;;;18.85;57.99;101860.63;4808767;29;120137;-75
2021/07/22 02:18:32;;;;;;;9.40;2.45;;;;;;;18.92;58.04;101862.25;4824764;28;119687;-76
2021/07/22 02:21:07;;;;;;;11.60;2.45;;;;;;;18.94;57.68;101868.88;4814681;29;119795;-75
2021/07/22 02:23:37;;;;;;;12.35;3.60;;;;;;;18.96;57.95;101863.59;4794939;29;122861;-76
2021/07/22 02:26:28;;;;;;;9.20;2.95;;;;;;;18.96;58.12;101868.41;4813110;29;119692;-79
2021/07/22 02:28:56;;;;;;;9.85;2.85;;;;;;;18.99;58.00;101870.97;4775109;29;121476;-75
2021/07/22 02:31:22;;;;;;;6.43;2.40;;;;;;;18.99;58.07;101865.41;4814435;29;120027;-75
2021/07/22 02:33:48;;;;;;;11.13;2.72;;;;;;;18.97;57.99;101862.34;4810138;29;120558;-78
2021/07/22 02:36:14;;;;;;;9.95;2.88;;;;;;;19.02;57.89;101872.78;4812293;29;119626;-75
2021/07/22 02:38:52;;;;;;;11.82;2.80;;;;;;;19.04;57.63;101872.31;4808303;29;120149;-76
2021/07/22 02:41:18;;;;;;;11.88;2.97;;;;;;;19.01;57.56;101862.94;4827925;28;120019;-75
2021/07/22 02:43:45;;;;;;;10.48;2.55;;;;;;;19.06;58.09;101871.84;4784639;29;121019;-76
2021/07/22 02:46:13;;;;;;;9.73;2.83;;;;;;;19.06;57.69;101875.38;4810543;29;120326;-76
2021/07/22 02:48:56;;;;;;;9.70;2.80;;;;;;;19.05;58.23;101861.97;4792218;29;120052;-75
2021/07/22 02:51:24;;;;;;;9.43;2.72;;;;;;;19.10;57.33;101877.97;4778420;29;126714;-76
2021/07/22 02:53:51;;;;;;;12.02;2.85;;;;;;;19.09;57.84;101868.09;4797288;29;119760;-75
2021/07/22 02:56:21;;;;;;;6.80;2.78;;;;;;;19.10;57.62;101872.41;4813166;29;120554;-75
2021/07/22 02:58:50;;;;;;;10.68;2.72;;;;;;;19.12;57.20;101872.69;4803466;29;120034;-75
2021/07/22 03:01:17;;;;;;;7.10;2.78;;;;;;;19.13;57.27;101877.00;4804768;29;119682;-75
2021/07/22 03:04:03;;;;;;;10.63;2.83;;;;;;;19.13;56.99;101872.19;4821324;28;119988;-76
2021/07/22 03:06:39;;;;;;;8.57;2.88;;;;;;;19.15;57.36;101869.69;4826215;28;119747;-76
2021/07/22 03:09:08;;;;;;;7.60;2.92;;;;;;;19.16;57.08;101867.69;4811560;29;119649;-75
2021/07/22 03:11:39;;;;;;;12.57;3.07;;;;;;;19.17;57.22;101863.69;4813391;29;119847;-76
2021/07/22 03:14:06;;;;;;;8.88;2.60;;;;;;;19.17;57.52;101864.44;4830446;28;120103;-76
2021/07/22 03:16:32;;;;;;;9.15;2.55;;;;;;;19.14;57.00;101859.81;4812713;29;119735;-75
2021/07/22 03:19:22;;;;;;;7.93;3.47;;;;;;;19.16;57.27;101853.78;4822969;28;119799;-75
2021/07/22 03:22:10;;;;;;;9.15;2.55;;;;;;;19.20;57.83;101857.91;4812919;29;119343;-75
2021/07/22 03:24:42;;;;;;;9.07;2.85;;;;;;;19.20;57.46;101857.91;4813356;29;120095;-76
2021/07/22 03:27:25;;;;;;;8.45;2.67;;;;;;;19.20;57.22;101846.78;4812424;29;120076;-75
2021/07/22 03:29:54;;;;;;;11.23;3.25;;;;;;;19.21;57.29;101850.34;4828507;28;119584;-77
2021/07/22 03:32:22;;;;;;;11.45;2.92;;;;;;;19.23;57.36;101850.63;4808931;29;120484;-76
2021/07/22 03:34:47;;;;;;;7.30;2.50;;;;;;;19.24;57.38;101847.34;4826261;29;121670;-76
2021/07/22 03:37:26;;;;;;;12.02;3.17;;;;;;;19.23;57.16;101837.47;4798753;29;123525;-76
2021/07/22 03:39:53;;;;;;;8.63;3.10;;;;;;;19.25;57.62;101848.13;4812145;29;120613;-75
2021/07/22 03:42:21;;;;;;;12.00;2.95;;;;;;;19.25;57.37;101843.31;4812599;29;119733;-76
2021/07/22 03:45:10;;;;;;;9.20;2.92;;;;;;;19.26;56.85;101836.50;4825383;28;120083;-75
2021/07/22 03:47:37;;;;;;;8.77;2.72;;;;;;;19.26;56.91;101841.31;4780604;29;120636;-75
2021/07/22 03:50:05;;;;;;;6.97;2.67;;;;;;;19.28;57.20;101841.59;4778434;29;120253;-75
2021/07/22 03:52:41;;;;;;;9.20;3.00;;;;;;;19.28;57.07;101836.78;4810802;29;120266;-75
2021/07/22 03:55:07;;;;;;;9.70;3.10;;;;;;;19.29;57.44;101843.13;4813726;29;120615;-76
2021/07/22 03:57:48;;;;;;;11.27;3.35;;;;;;;19.26;57.46;101832.97;4805952;29;121140;-75
2021/07/22 04:00:15;;;;;;;11.20;2.90;;;;;;;19.30;57.38;101842.63;4813536;29;119561;-76
2021/07/22 04:02:41;;;;;;;8.30;2.45;;;;;;;19.30;57.57;101839.84;4822959;28;119640;-77
2021/07/22 04:05:10;;;;;;;6.55;2.70;;;;;;;19.32;57.20;101842.16;4827099;29;119684;-76
2021/07/22 04:07:36;;;;;;;8.85;2.67;;;;;;;19.32;56.91;101845.69;4809417;29;119885;-76
2021/07/22 04:10:18;;;;;;;10.63;2.70;;;;;;;19.35;57.41;101849.53;4810844;29;120340;-77
2021/07/22 04:13:02;;;;;;;8.13;3.00;;;;;;;19.37;57.20;101847.03;4811265;29;119726;-75
2021/07/22 04:16:06;;;;;;;11.02;2.63;;;;;;;19.34;57.20;101845.22;4799700;29;120534;-77
2021/07/22 04:18:51;;;;;;;9.60;2.65;;;;;;;19.39;57.36;101847.31;4823251;28;121644;-76
2021/07/22 04:21:25;;;;;;;8.80;2.80;;;;;;;19.40;57.35;101848.88;4812895;29;120181;-78
2021/07/22 04:24:09;;;;;;;11.18;2.80;;;;;;;19.39;57.66;101852.09;4809168;29;120819;-76
2021/07/22 04:26:54;;;;;;;11.18;3.00;;;;;;;19.44;57.13;101857.00;4797222;29;121942;-76
2021/07/22 04:29:30;;;;;;;6.03;2.45;;;;;;;19.46;57.00;101841.34;4782861;29;119816;-76
2021/07/22 04:31:56;;;;;;;6.93;2.60;;;;;;;19.48;57.12;101844.41;4781410;29;121171;-75
2021/07/22 04:34:38;;;;;;;7.97;2.65;;;;;;;19.47;57.33;101834.53;4808235;29;120146;-77
2021/07/22 04:37:25;;;;;;;11.48;2.70;;;;;;;19.52;57.06;101844.97;4808172;29;119576;-76
2021/07/22 04:40:13;;;;;;;9.25;2.47;;;;;;;19.54;56.95;101842.50;4808116;29;120041;-75
2021/07/22 04:43:00;;;;;;;8.63;2.70;;;;;;;19.55;57.09;101843.25;4810199;29;119646;-76
2021/07/22 04:45:39;;;;;;;7.60;2.70;;;;;;;19.53;56.92;101834.63;4813605;29;121301;-76
2021/07/22 04:48:28;;;;;;;6.50;2.40;;;;;;;19.57;56.30;101841.53;4795252;29;120456;-75
2021/07/22 04:51:15;;;;;;;9.75;2.60;;;;;;;19.59;56.45;101839.03;4803067;29;120569;-76
2021/07/22 04:53:54;;;;;;;12.52;2.50;;;;;;;19.58;56.40;101834.72;4807124;29;120076;-75
2021/07/22 04:56:21;;;;;;;9.85;2.80;;;;;;;19.62;56.22;101842.84;4797215;29;120157;-75
2021/07/22 04:58:46;;;;;;;7.18;2.53;;;;;;;19.65;55.85;101843.94;4809657;29;119658;-75
2021/07/22 05:01:26;;;;;;;9.02;2.55;;;;;;;19.68;55.79;101845.72;4824509;29;120973;-76
2021/07/22 05:03:52;;;;;;;6.53;2.55;;;;;;;19.70;55.62;101849.56;4810879;29;120208;-76
2021/07/22 05:06:24;;;;;;;11.88;2.33;;;;;;;19.71;55.71;101844.75;4808109;29;120190;-75
2021/07/22 05:09:27;;;;;;;9.25;2.28;;;;;;;19.75;55.23;101845.31;4793840;29;120323;-76
2021/07/22 05:12:14;;;;;;;6.72;2.65;;;;;;;19.78;55.20;101844.34;4822276;29;120001;-76
2021/07/22 05:14:44;;;;;;;8.32;2.67;;;;;;;19.81;55.92;101852.47;4808940;29;121959;-76
2021/07/22 05:17:36;;;;;;;10.07;2.65;;;;;;;19.85;55.85;101857.84;4806031;29;120516;-76
2021/07/22 05:20:22;;;;;;;6.68;2.40;;;;;;;19.89;55.80;101852.84;4775743;29;119865;-76
2021/07/22 05:23:26;;;;;;;6.60;2.75;;;;;;;19.83;55.45;101841.63;4788786;29;120239;-76
2021/07/22 05:26:07;;;;;;;6.72;2.70;;;;;;;19.88;55.09;101851.31;4810459;29;120159;-75
2021/07/22 05:28:50;;;;;;;;;;;;;;;19.93;55.57;101851.38;4810565;29;120137;-75
2021/07/22 05:31:54;;;;;;;9.07;2.60;;;;;;;19.96;56.23;101855.19;4800105;29;120214;-77
2021/07/22 05:34:37;;;;;;;7.77;2.87;;;;;;;19.99;56.40;101842.31;4796305;29;122265;-75
2021/07/22 05:37:16;;;;;;;7.63;2.30;;;;;;;19.99;56.01;101843.09;4811416;29;119600;-75
2021/07/22 05:39:47;;;;;;;10.55;2.67;;;;;;;20.05;55.69;101837.56;4823690;28;120292;-76
2021/07/22 05:42:12;;;;;;;12.25;2.42;;;;;;;20.07;55.22;101835.81;4791996;29;120421;-75
2021/07/22 05:44:41;;;;;;;6.00;2.33;;;;;;;20.09;55.28;101838.13;4807255;29;119883;-75
2021/07/22 05:47:06;;;;;;;7.05;2.28;;;;;;;20.11;55.51;101833.63;4900114;23;120349;-79
2021/07/22 05:49:35;;;;;;;14.15;2.63;;;;;;;20.14;55.12;101834.66;4810521;29;119772;-80
2021/07/22 05:52:01;;;;;;;8.80;2.35;;;;;;;20.18;55.00;101838.00;4817640;28;120491;-80
2021/07/22 05:54:27;;;;;;;9.15;2.28;;;;;;;20.21;54.81;101839.78;4805497;29;121627;-79
2021/07/22 05:56:52;;;;;;;7.05;2.20;;;;;;;20.20;55.04;101830.66;4802939;29;119794;-78
2021/07/22 05:59:20;;;;;;;9.93;2.58;;;;;;;20.23;54.56;101838.03;4808703;29;119964;-78
2021/07/22 06:01:46;;;;;;;12.85;2.97;;;;;;;20.28;54.73;101836.56;4807746;29;119762;-79
2021/07/22 06:04:11;;;;;;;11.77;2.42;;;;;;;20.28;55.03;101831.00;4804177;29;119614;-80
2021/07/22 06:06:39;;;;;;;8.73;2.47;;;;;;;20.29;54.68;101835.31;4800689;29;120158;-79
2021/07/22 06:09:04;;;;;;;6.07;2.30;;;;;;;20.30;54.41;101830.50;4805413;29;119806;-78
2021/07/22 06:11:32;;;;;;;8.52;2.42;;;;;;;20.32;54.64;101825.97;4790596;29;119633;-81
2021/07/22 06:14:17;;;;;;;7.00;2.60;;;;;;;20.37;54.94;101838.44;4803826;29;121799;-78
2021/07/22 06:16:42;;;;;;;8.77;2.30;;;;;;;20.37;54.27;101832.88;4775064;29;119730;-81
2021/07/22 06:19:09;;;;;;;7.75;2.33;;;;;;;20.38;54.67;101835.16;4803320;29;120448;-78
2021/07/22 06:21:34;;;;;;;6.53;1.95;;;;;;;20.37;54.45;101828.06;4807169;29;119980;-83
2021/07/22 06:24:00;;;;;;;6.40;2.58;;;;;;;20.34;54.54;101817.13;4806509;29;120260;-78
2021/07/22 06:26:26;;;;;;;4.60;2.15;;;;;;;20.45;54.90;101829.19;4802827;29;120554;-77
2021/07/22 06:28:51;;;;;;;9.60;2.42;;;;;;;20.46;54.54;101835.53;4799389;29;120241;-78
2021/07/22 06:31:17;;;;;;;7.93;2.15;;;;;;;20.48;54.43;101830.22;4791518;29;121560;-78
2021/07/22 06:33:45;;;;;;;5.90;2.00;;;;;;;20.53;54.17;101832.28;4800742;29;122460;-81
2021/07/22 06:36:19;;;;;;;8.45;2.15;;;;;;;20.50;54.14;101824.91;4794004;28;122086;-82
2021/07/22 06:38:44;;;;;;;7.68;2.58;;;;;;;20.57;54.99;101835.63;4802590;29;120612;-78
2021/07/22 06:41:11;;;;;;;8.23;2.40;;;;;;;20.57;54.14;101832.81;4780763;29;119676;-78
2021/07/22 06:43:37;;;;;;;7.65;2.55;;;;;;;20.58;54.43;101836.38;4799725;29;126797;-79
2021/07/22 06:46:03;;;;;;;6.72;2.40;;;;;;;20.60;54.28;101836.69;4784584;29;122283;-81
2021/07/22 06:48:29;;;;;;;8.07;2.72;;;;;;;20.54;54.47;101828.25;4798630;29;119833;-78
2021/07/22 06:50:54;;;;;;;9.95;2.50;;;;;;;20.59;54.25;101841.50;4781137;29;122303;-78
2021/07/22 06:53:21;;;;;;;7.32;2.47;;;;;;;20.60;54.39;101834.66;4789032;29;121465;-78
2021/07/22 06:55:52;;;;;;;11.30;2.40;;;;;;;20.63;54.57;101832.91;4800436;29;120760;-78
2021/07/22 06:58:18;;;;;;;7.07;2.42;;;;;;;20.64;54.36;101831.66;4803553;29;121331;-78
2021/07/22 07:00:43;;;;;;;7.65;2.38;;;;;;;20.65;54.21;101825.56;4804246;29;120264;-79
2021/07/22 07:03:10;;;;;;;7.55;2.65;;;;;;;20.67;54.23;101830.66;4778589;29;120705;-78
2021/07/22 07:05:35;;;;;;;7.80;2.63;;;;;;;20.67;54.29;101827.88;4795869;29;119716;-80
2021/07/22 07:08:04;;;;;;;10.50;2.75;;;;;;;20.70;54.28;101829.66;4779235;29;120757;-79
2021/07/22 07:10:32;;;;;;;6.97;2.40;;;;;;;20.74;54.25;101841.34;4804856;29;119700;-80
2021/07/22 07:13:00;;;;;;;9.80;2.50;;;;;;;20.76;54.06;101838.84;4789012;29;120754;-78
2021/07/22 07:15:39;;;;;;;9.45;2.67;;;;;;;20.76;54.14;101828.44;5026420;27;1356330;-78
2021/07/22 07:18:04;;;;;;;10.52;2.47;;;;;;;20.78;54.31;101825.94;5056643;27;120112;-80
2021/07/22 07:20:33;;;;;;;8.77;2.70;;;;;;;20.76;53.92;101820.09;5023001;27;119686;-78
2021/07/22 07:22:59;;;;;;;8.20;2.22;;;;;;;20.83;53.99;101830.03;5052744;27;120632;-79
2021/07/22 07:25:27;;;;;;;9.85;2.55;;;;;;;20.86;54.28;101833.88;5028402;27;120430;-79
2021/07/22 07:27:53;;;;;;;6.72;2.42;;;;;;;20.87;53.85;101824.25;5018959;27;120872;-80
2021/07/22 07:30:20;;;;;;;6.95;2.20;;;;;;;20.87;53.59;101829.81;5020268;27;120495;-79
2021/07/22 07:32:51;;;;;;;6.68;2.35;;;;;;;20.90;54.01;101823.25;5029920;27;119854;-78
2021/07/22 07:35:17;;;;;;;7.88;2.47;;;;;;;20.90;53.85;101820.47;5057865;27;119650;-78
2021/07/22 07:37:42;;;;;;;7.47;2.60;;;;;;;20.90;53.75;101815.66;5027075;27;119526;-78
2021/07/22 07:40:08;;;;;;;9.00;2.80;;;;;;;20.94;53.44;101821.00;5022956;27;122974;-79
2021/07/22 07:42:36;;;;;;;9.43;2.47;;;;;;;20.94;53.34;101827.34;5008694;27;120248;-80
2021/07/22 07:45:02;;;;;;;5.25;2.53;;;;;;;20.96;53.60;101833.19;4997076;27;120429;-78
2021/07/22 07:47:27;;;;;;;6.43;2.38;;;;;;;20.98;53.69;101838.25;5015745;27;119878;-80
2021/07/22 07:49:53;;;;;;;8.98;2.50;;;;;;;20.98;53.32;101830.66;5022922;27;119578;-79
2021/07/22 07:52:18;;;;;;;7.07;2.65;;;;;;;20.97;53.29;101828.38;5050243;27;120395;-78
2021/07/22 07:54:48;;;;;;;10.85;3.15;;;;;;;21.02;53.67;101836.00;5002236;27;120134;-79
2021/07/22 07:57:13;;;;;;;9.90;2.75;;;;;;;21.00;53.37;101827.38;5014500;27;121505;-78
2021/07/22 07:59:39;;;;;;;11.75;2.67;;;;;;;21.06;54.28;101842.91;5022637;27;120216;-78
2021/07/22 08:02:05;;;;;;;9.45;2.95;;;;;;;21.06;53.65;101837.31;5027688;27;121926;-79
2021/07/22 08:04:30;;;;;;;8.85;3.13;;;;;;;21.10;53.56;101837.09;5053777;27;120015;-78
2021/07/22 08:06:56;;;;;;;6.63;2.58;;;;;;;21.12;53.66;101829.00;5051363;27;120645;-78
2021/07/22 08:09:21;;;;;;;8.90;2.60;;;;;;;21.10;53.40;101828.72;5028243;27;119653;-78
2021/07/22 08:11:47;;;;;;;9.45;2.85;;;;;;;21.12;52.61;101829.75;5050561;27;119959;-78
2021/07/22 08:14:14;;;;;;;7.43;2.70;;;;;;;21.12;53.74;101817.84;5014910;27;120049;-80
2021/07/22 08:16:43;;;;;;;7.65;2.83;;;;;;;21.22;54.06;101830.31;5016963;27;122412;-78
2021/07/22 08:19:11;;;;;;;9.65;2.90;;;;;;;21.27;53.22;101829.63;5035555;27;120411;-81
2021/07/22 08:21:36;;;;;;;10.13;2.95;;;;;;;21.29;52.73;101838.25;5012127;27;120991;-78
2021/07/22 08:24:02;;;;;;;11.00;2.55;;;;;;;21.28;53.60;101825.56;5028984;27;121103;-79
2021/07/22 08:26:28;;;;;;;7.40;2.78;;;;;;;21.25;53.27;101820.97;5003794;27;120082;-78
2021/07/22 08:28:54;;;;;;;7.80;2.58;;;;;;;21.32;53.09;101819.78;4995302;27;121327;-78
2021/07/22 08:31:20;;;;;;;9.38;3.25;;;;;;;21.35;53.46;101833.50;5018532;27;119705;-81
2021/07/22 08:33:46;;;;;;;8.25;2.58;;;;;;;21.39;53.73;101831.22;5002506;27;120333;-78
2021/07/22 08:36:12;;;;;;;7.55;3.17;;;;;;;21.42;53.56;101833.03;4982051;27;122383;-78
2021/07/22 08:38:37;;;;;;;8.07;2.88;;;;;;;21.45;52.91;101829.22;5018385;27;120764;-80
2021/07/22 08:41:04;;;;;;;6.15;2.65;;;;;;;21.44;53.05;101830.50;5009422;27;121553;-80
2021/07/22 08:43:32;;;;;;;9.20;3.20;;;;;;;21.44;52.95;101833.28;5018353;27;120164;-81
2021/07/22 08:45:57;;;;;;;6.70;2.90;;;;;;;21.45;52.92;101828.47;5016887;27;120226;-81
2021/07/22 08:48:23;;;;;;;11.68;3.10;;;;;;;21.41;53.05;101814.75;4993537;27;120773;-78
2021/07/22 08:50:48;;;;;;;9.27;3.22;;;;;;;21.48;53.52;101827.47;5043038;27;119707;-79
2021/07/22 08:53:15;;;;;;;7.78;2.97;;;;;;;21.44;53.15;101824.91;4979507;27;119844;-78
2021/07/22 08:55:44;;;;;;;12.20;3.38;;;;;;;21.47;53.02;101831.50;5017130;27;120259;-78
2021/07/22 08:58:12;;;;;;;9.48;3.30;;;;;;;21.47;53.33;101825.16;5014126;27;119888;-79
2021/07/22 09:00:38;;;;;;;8.23;3.20;;;;;;;21.50;54.15;101826.97;5043956;27;119934;-81
2021/07/22 09:03:10;;;;;;;8.82;3.20;;;;;;;21.49;53.43;101822.63;5021397;27;120100;-79
2021/07/22 09:05:35;;;;;;;11.35;2.90;;;;;;;21.51;53.53;101825.69;5019977;27;120947;-78
2021/07/22 09:08:02;;;;;;;12.65;3.60;;;;;;;21.52;53.33;101830.00;5006668;27;120380;-78
2021/07/22 09:10:28;;;;;;;12.45;3.35;;;;;;;21.49;53.06;101815.03;5037559;27;119996;-78
2021/07/22 09:12:54;;;;;;;9.65;3.35;;;;;;;21.52;52.99;101830.00;4999615;27;119919;-78
2021/07/22 09:15:25;;;;;;;8.60;3.17;;;;;;;21.52;53.48;101827.22;5017506;27;121554;-79
2021/07/22 09:17:51;;;;;;;8.95;2.95;;;;;;;21.50;54.25;101813.75;5018629;27;120190;-80
2021/07/22 09:20:31;;;;;;;5.80;3.10;;;;;;;21.59;54.17;101821.19;5017826;27;121545;-79
2021/07/22 09:23:01;;;;;;;10.95;3.28;;;;;;;21.62;53.90;101828.56;5027175;27;120379;-78
2021/07/22 09:25:40;;;;;;;10.00;3.00;;;;;;;21.65;53.35;101824.75;5022839;27;120828;-78
2021/07/22 09:28:06;;;;;;;8.23;2.90;;;;;;;21.65;53.67;101830.34;5013864;27;122844;-78
2021/07/22 09:30:35;;;;;;;8.27;3.47;;;;;;;21.66;53.70;101817.91;5022276;27;120135;-79
2021/07/22 09:33:03;;;;;;;10.18;3.05;;;;;;;21.65;53.87;101819.19;5028820;27;120304;-78
2021/07/22 09:35:28;;;;;;;11.10;3.17;;;;;;;21.68;53.95;101830.09;5000465;27;120134;-79
2021/07/22 09:37:59;;;;;;;12.50;3.28;;;;;;;21.70;53.59;101827.56;5017979;27;120246;-82
2021/07/22 09:40:24;;;;;;;6.70;3.25;;;;;;;21.69;53.81;101825.28;5020748;27;120498;-78
2021/07/22 09:42:54;;;;;;;9.25;3.47;;;;;;;21.70;53.59;101815.66;5016819;27;121576;-80
2021/07/22 09:45:23;;;;;;;12.80;3.58;;;;;;;21.69;53.94;101823.25;5040696;27;120222;-78
2021/07/22 09:47:49;;;;;;;7.55;2.97;;;;;;;;;;5038331;27;120780;-78
2021/07/22 09:50:17;;;;;;;10.07;3.80;;;;;;;21.71;53.84;101825.56;5010215;27;120083;-79
2021/07/22 09:52:44;;;;;;;12.10;3.22;;;;;;;21.65;53.68;101814.34;5020525;27;122522;-78
2021/07/22 09:55:29;;;;;;;8.75;3.30;;;;;;;21.70;53.75;101832.41;5032051;27;120058;-79
2021/07/22 09:58:00;;;;;;;6.88;3.42;;;;;;;21.68;54.49;101832.13;5031621;27;120166;-78
2021/07/22 10:00:27;;;;;;;9.55;2.95;;;;;;;21.59;54.18;101815.59;5039120;27;122432;-79
2021/07/22 10:02:54;;;;;;;9.18;3.38;;;;;;;21.66;54.53;101829.09;5016578;27;120572;-80
2021/07/22 10:05:34;;;;;;;9.57;3.90;;;;;;;21.64;54.14;101834.41;5005872;27;120558;-78
2021/07/22 10:08:00;;;;;;;9.55;3.60;;;;;;;21.60;54.56;101829.06;4998300;27;121326;-78
2021/07/22 10:10:27;;;;;;;9.57;3.13;;;;;;;21.60;54.41;101833.88;5015158;27;120796;-81
2021/07/22 10:12:58;;;;;;;8.07;3.53;;;;;;;21.62;54.60;101831.34;4981214;27;120684;-79
2021/07/22 10:15:31;;;;;;;6.93;3.13;;;;;;;21.58;54.81;101834.38;5025382;27;120760;-78
2021/07/22 10:18:00;;;;;;;8.90;3.50;;;;;;;21.58;54.90;101833.63;5014060;27;119896;-78
2021/07/22 10:20:32;;;;;;;8.85;3.97;;;;;;;21.58;55.03;101825.25;4992941;27;120665;-78
2021/07/22 10:22:58;;;;;;;10.45;3.70;;;;;;;21.58;55.32;101826.00;5003954;27;119898;-82
2021/07/22 10:25:25;;;;;;;12.95;3.63;;;;;;;21.61;55.39;101829.81;5011618;27;120409;-82
2021/07/22 10:27:56;;;;;;;12.02;4.20;;;;;;;21.62;55.80;101834.91;5008554;27;128089;-78
2021/07/22 10:30:25;;;;;;;9.48;3.40;;;;;;;21.61;55.42;101829.81;5040358;27;120644;-77
2021/07/22 10:32:54;;;;;;;9.48;3.38;;;;;;;21.59;55.46;101829.56;5014411;27;119955;-80
2021/07/22 10:35:26;;;;;;;8.48;3.42;;;;;;;21.59;55.18;101838.69;5015387;27;120809;-79
2021/07/22 10:38:05;;;;;;;7.85;3.47;;;;;;;21.58;55.56;101839.22;4985188;27;119852;-78
2021/07/22 10:40:57;;;;;;;9.98;3.58;;;;;;;21.52;55.21;101822.41;5037116;27;120385;-79
2021/07/22 10:43:29;;;;;;;8.85;3.22;;;;;;;21.53;55.75;101825.97;5025226;27;121109;-80
2021/07/22 10:45:56;;;;;;;8.15;3.45;;;;;;;21.50;55.83;101833.31;5014360;27;120759;-76
2021/07/22 10:48:25;;;;;;;11.63;3.38;;;;;;;21.44;55.93;101822.13;5011078;27;120612;-78
2021/07/22 10:50:54;;;;;;;5.10;2.90;;;;;;;21.53;55.91;101831.53;5016767;27;121222;-78
2021/07/22 10:53:41;;;;;;;11.70;3.47;;;;;;;21.51;55.85;101823.66;5023079;27;119975;-79
2021/07/22 10:56:09;;;;;;;6.28;2.85;;;;;;;21.56;55.97;101827.78;4995901;27;121271;-81
2021/07/22 10:58:34;;;;;;;8.00;3.15;;;;;;;21.56;56.15;101836.91;4985113;27;120971;-78
2021/07/22 11:01:05;;;;;;;9.27;3.58;;;;;;;21.55;56.36;101826.25;5012308;27;120755;-79
2021/07/22 11:06:13;;;;;;;7.40;3.00;;;;;;;21.55;56.81;101824.22;5002454;27;119982;-79
2021/07/22 11:08:43;;;;;;;6.35;2.60;;;;;;;21.56;57.25;101822.19;5010937;27;119793;-79
2021/07/22 11:11:13;;;;;;;16.02;3.38;;;;;;;21.57;56.71;101827.28;5013639;27;119747;-78
2021/07/22 11:13:50;;;;;;;12.27;3.20;;;;;;;21.58;57.21;101816.88;5009072;27;120188;-78
2021/07/22 11:16:25;;;;;;;10.05;3.30;;;;;;;21.63;57.39;101821.72;5018834;27;119896;-78
2021/07/22 11:18:51;;;;;;;10.63;3.10;;;;;;;21.73;56.95;101814.63;5032146;27;120073;-79
2021/07/22 11:21:26;;;;;;;10.05;3.10;;;;;;;21.85;57.55;101821.81;5011220;27;121334;-77
2021/07/22 11:24:00;;;;;;;10.18;2.97;;;;;;;21.96;56.71;101819.03;5015236;27;120526;-81
2021/07/22 11:26:35;;;;;;;13.65;3.28;;;;;;;22.12;56.66;101816.84;4974619;27;122588;-82
2021/07/22 11:29:02;;;;;;;9.35;3.20;;;;;;;22.24;56.57;101812.78;5000455;27;120335;-80
2021/07/22 11:31:32;;;;;;;7.78;2.90;;;;;;;22.33;56.48;101807.00;5017223;27;120702;-78